sensor_id;sensor_type;location;lat;lon;timestamp;pressure;altitude;pressure_sealevel;temperature;humidity
6387;BME280;3226;42.162;24.756;2023-05-20T00:00:31;99886.75;;;14.70;93.62
6387;BME280;3226;42.162;24.756;2023-05-20T00:02:59;99883.56;;;14.67;94.34
6387;BME280;3226;42.162;24.756;2023-05-20T00:05:27;99879.66;;;14.71;95.05
6387;BME280;3226;42.162;24.756;2023-05-20T00:07:55;99881.03;;;14.65;95.40
6387;BME280;3226;42.162;24.756;2023-05-20T00:10:23;99881.50;;;14.60;95.48
6387;BME280;3226;42.162;24.756;2023-05-20T00:12:51;99881.56;;;14.51;96.30
6387;BME280;3226;42.162;24.756;2023-05-20T00:15:19;99868.03;;;14.36;97.80
6387;BME280;3226;42.162;24.756;2023-05-20T00:17:48;99881.16;;;14.45;98.05
6387;BME280;3226;42.162;24.756;2023-05-20T00:20:16;99881.56;;;14.51;97.75
6387;BME280;3226;42.162;24.756;2023-05-20T00:22:44;99881.13;;;14.55;97.05
6387;BME280;3226;42.162;24.756;2023-05-20T00:25:12;99881.56;;;14.51;97.41
6387;BME280;3226;42.162;24.756;2023-05-20T00:27:41;99879.28;;;14.28;98.02
6387;BME280;3226;42.162;24.756;2023-05-20T00:30:09;99868.91;;;14.26;98.18
6387;BME280;3226;42.162;24.756;2023-05-20T00:32:37;99877.63;;;14.27;98.92
6387;BME280;3226;42.162;24.756;2023-05-20T00:35:08;99864.75;;;14.24;99.47
6387;BME280;3226;42.162;24.756;2023-05-20T00:37:37;99874.19;;;14.26;99.79
6387;BME280;3226;42.162;24.756;2023-05-20T00:40:06;99863.94;;;14.23;99.89
6387;BME280;3226;42.162;24.756;2023-05-20T00:42:34;99868.38;;;14.23;100.00
6387;BME280;3226;42.162;24.756;2023-05-20T00:45:02;99871.16;;;14.21;100.00
6387;BME280;3226;42.162;24.756;2023-05-20T00:47:32;99875.47;;;14.22;100.00
6387;BME280;3226;42.162;24.756;2023-05-20T00:50:01;99880.94;;;14.01;100.00
6387;BME280;3226;42.162;24.756;2023-05-20T00:52:31;99873.72;;;14.03;100.00
6387;BME280;3226;42.162;24.756;2023-05-20T00:55:00;99866.75;;;14.12;100.00
6387;BME280;3226;42.162;24.756;2023-05-20T00:57:28;99869.53;;;14.10;100.00
6387;BME280;3226;42.162;24.756;2023-05-20T00:59:56;99869.25;;;14.13;100.00
6387;BME280;3226;42.162;24.756;2023-05-20T01:02:25;99846.84;;;13.99;100.00
6387;BME280;3226;42.162;24.756;2023-05-20T01:04:53;99863.88;;;14.05;100.00
6387;BME280;3226;42.162;24.756;2023-05-20T01:07:22;99848.50;;;14.00;100.00
6387;BME280;3226;42.162;24.756;2023-05-20T01:09:52;99850.16;;;14.01;100.00
6387;BME280;3226;42.162;24.756;2023-05-20T01:12:25;99842.72;;;13.97;100.00
6387;BME280;3226;42.162;24.756;2023-05-20T01:14:55;99848.75;;;14.07;100.00
6387;BME280;3226;42.162;24.756;2023-05-20T01:17:28;99826.78;;;13.88;100.00
6387;BME280;3226;42.162;24.756;2023-05-20T01:19:59;99855.44;;;14.01;100.00
6387;BME280;3226;42.162;24.756;2023-05-20T01:22:29;99853.50;;;13.94;100.00
6387;BME280;3226;42.162;24.756;2023-05-20T01:24:57;99849.63;;;13.98;100.00
6387;BME280;3226;42.162;24.756;2023-05-20T01:27:25;99845.97;;;14.09;100.00
6387;BME280;3226;42.162;24.756;2023-05-20T01:29:53;99854.25;;;14.14;100.00
6387;BME280;3226;42.162;24.756;2023-05-20T01:32:23;99859.59;;;14.04;100.00
6387;BME280;3226;42.162;24.756;2023-05-20T01:34:53;99851.28;;;13.99;100.00
6387;BME280;3226;42.162;24.756;2023-05-20T01:37:22;99847.72;;;13.90;100.00
6387;BME280;3226;42.162;24.756;2023-05-20T01:39:52;99856.59;;;13.89;100.00
6387;BME280;3226;42.162;24.756;2023-05-20T01:42:21;99847.88;;;13.79;100.00
6387;BME280;3226;42.162;24.756;2023-05-20T01:44:50;99846.38;;;13.76;100.00
6387;BME280;3226;42.162;24.756;2023-05-20T01:47:18;99839.44;;;13.75;100.00
6387;BME280;3226;42.162;24.756;2023-05-20T01:49:46;99841.22;;;13.74;100.00
6387;BME280;3226;42.162;24.756;2023-05-20T01:52:15;99843.34;;;13.71;100.00
6387;BME280;3226;42.162;24.756;2023-05-20T01:54:43;99839.47;;;13.65;100.00
6387;BME280;3226;42.162;24.756;2023-05-20T01:57:18;99837.13;;;13.52;100.00
6387;BME280;3226;42.162;24.756;2023-05-20T01:59:47;99838.94;;;13.52;100.00
6387;BME280;3226;42.162;24.756;2023-05-20T02:02:15;99843.06;;;13.64;100.00
6387;BME280;3226;42.162;24.756;2023-05-20T02:04:45;99827.56;;;13.71;100.00
6387;BME280;3226;42.162;24.756;2023-05-20T02:07:14;99828.38;;;13.71;100.00
6387;BME280;3226;42.162;24.756;2023-05-20T02:09:42;99819.66;;;13.61;100.00
6387;BME280;3226;42.162;24.756;2023-05-20T02:12:10;99796.00;;;13.51;100.00
6387;BME280;3226;42.162;24.756;2023-05-20T02:14:43;99818.13;;;13.68;100.00
6387;BME280;3226;42.162;24.756;2023-05-20T02:17:12;99814.53;;;13.59;100.00
6387;BME280;3226;42.162;24.756;2023-05-20T02:19:40;99807.09;;;13.55;100.00
6387;BME280;3226;42.162;24.756;2023-05-20T02:22:08;99808.22;;;13.33;100.00
6387;BME280;3226;42.162;24.756;2023-05-20T02:24:36;99807.66;;;13.39;100.00
6387;BME280;3226;42.162;24.756;2023-05-20T02:27:04;99807.94;;;13.36;100.00
6387;BME280;3226;42.162;24.756;2023-05-20T02:29:33;99816.41;;;13.20;100.00
6387;BME280;3226;42.162;24.756;2023-05-20T02:32:03;99815.69;;;13.27;100.00
6387;BME280;3226;42.162;24.756;2023-05-20T02:34:31;99806.56;;;13.32;100.00
6387;BME280;3226;42.162;24.756;2023-05-20T02:36:59;99810.41;;;13.37;100.00
6387;BME280;3226;42.162;24.756;2023-05-20T02:39:27;99818.72;;;13.42;100.00
6387;BME280;3226;42.162;24.756;2023-05-20T02:41:55;99808.47;;;13.49;100.00
6387;BME280;3226;42.162;24.756;2023-05-20T02:44:23;99806.69;;;13.50;100.00
6387;BME280;3226;42.162;24.756;2023-05-20T02:46:51;99815.38;;;13.40;100.00
6387;BME280;3226;42.162;24.756;2023-05-20T02:49:20;99814.28;;;13.23;100.00
6387;BME280;3226;42.162;24.756;2023-05-20T02:51:48;99814.88;;;13.17;100.00
6387;BME280;3226;42.162;24.756;2023-05-20T02:54:16;99820.25;;;13.25;100.00
6387;BME280;3226;42.162;24.756;2023-05-20T02:56:44;99812.34;;;13.35;100.00
6387;BME280;3226;42.162;24.756;2023-05-20T02:59:12;99819.56;;;13.33;100.00
6387;BME280;3226;42.162;24.756;2023-05-20T03:01:41;99815.41;;;13.30;100.00
6387;BME280;3226;42.162;24.756;2023-05-20T03:04:09;99812.63;;;13.32;100.00
6387;BME280;3226;42.162;24.756;2023-05-20T03:06:38;99815.94;;;13.34;100.00
6387;BME280;3226;42.162;24.756;2023-05-20T03:09:10;99822.06;;;13.44;100.00
6387;BME280;3226;42.162;24.756;2023-05-20T03:11:38;99822.91;;;13.45;100.00
6387;BME280;3226;42.162;24.756;2023-05-20T03:14:06;99818.72;;;13.52;99.14
6387;BME280;3226;42.162;24.756;2023-05-20T03:16:34;99820.25;;;13.45;99.55
6387;BME280;3226;42.162;24.756;2023-05-20T03:19:02;99831.47;;;13.47;100.00
6387;BME280;3226;42.162;24.756;2023-05-20T03:21:30;99827.47;;;13.43;99.58
6387;BME280;3226;42.162;24.756;2023-05-20T03:24:01;99830.78;;;13.45;99.53
6387;BME280;3226;42.162;24.756;2023-05-20T03:26:29;99844.19;;;13.32;99.28
6387;BME280;3226;42.162;24.756;2023-05-20T03:28:58;99854.56;;;13.04;99.59
6387;BME280;3226;42.162;24.756;2023-05-20T03:31:26;99876.16;;;12.78;100.00
6387;BME280;3226;42.162;24.756;2023-05-20T03:33:55;99873.66;;;12.86;100.00
6387;BME280;3226;42.162;24.756;2023-05-20T03:36:23;99883.34;;;12.86;100.00
6387;BME280;3226;42.162;24.756;2023-05-20T03:38:51;99889.59;;;13.05;100.00
6387;BME280;3226;42.162;24.756;2023-05-20T03:41:20;99892.53;;;13.11;100.00
6387;BME280;3226;42.162;24.756;2023-05-20T03:43:48;99899.69;;;13.19;100.00
6387;BME280;3226;42.162;24.756;2023-05-20T03:46:16;99894.84;;;13.05;100.00
6387;BME280;3226;42.162;24.756;2023-05-20T03:48:44;99902.97;;;12.82;100.00
6387;BME280;3226;42.162;24.756;2023-05-20T03:51:12;99886.75;;;12.57;100.00
6387;BME280;3226;42.162;24.756;2023-05-20T03:53:40;99884.28;;;12.65;100.00
6387;BME280;3226;42.162;24.756;2023-05-20T03:56:08;99871.75;;;12.38;100.00
6387;BME280;3226;42.162;24.756;2023-05-20T03:58:37;99889.19;;;12.49;100.00
6387;BME280;3226;42.162;24.756;2023-05-20T04:01:05;99884.47;;;12.42;100.00
6387;BME280;3226;42.162;24.756;2023-05-20T04:03:33;99881.50;;;12.57;100.00
6387;BME280;3226;42.162;24.756;2023-05-20T04:06:01;99887.31;;;12.70;100.00
6387;BME280;3226;42.162;24.756;2023-05-20T04:08:30;99881.84;;;12.93;100.00
6387;BME280;3226;42.162;24.756;2023-05-20T04:10:58;99885.16;;;12.95;100.00
6387;BME280;3226;42.162;24.756;2023-05-20T04:13:26;99880.47;;;13.09;100.00
6387;BME280;3226;42.162;24.756;2023-05-20T04:15:55;99879.66;;;13.08;100.00
6387;BME280;3226;42.162;24.756;2023-05-20T04:18:23;99882.94;;;13.20;100.00
6387;BME280;3226;42.162;24.756;2023-05-20T04:20:54;99858.06;;;13.14;100.00
6387;BME280;3226;42.162;24.756;2023-05-20T04:23:22;99861.09;;;13.29;100.00
6387;BME280;3226;42.162;24.756;2023-05-20T04:25:50;99877.00;;;13.57;100.00
6387;BME280;3226;42.162;24.756;2023-05-20T04:28:18;99877.38;;;13.72;100.00
6387;BME280;3226;42.162;24.756;2023-05-20T04:30:58;99880.69;;;13.84;100.00
6387;BME280;3226;42.162;24.756;2023-05-20T04:33:28;99873.59;;;13.95;98.68
6387;BME280;3226;42.162;24.756;2023-05-20T04:35:56;99869.81;;;14.07;97.40
6387;BME280;3226;42.162;24.756;2023-05-20T04:38:24;99875.91;;;14.08;96.94
6387;BME280;3226;42.162;24.756;2023-05-20T04:40:55;99868.19;;;13.96;97.81
6387;BME280;3226;42.162;24.756;2023-05-20T04:43:24;99875.97;;;13.98;97.72
6387;BME280;3226;42.162;24.756;2023-05-20T04:45:55;99869.06;;;13.87;97.70
6387;BME280;3226;42.162;24.756;2023-05-20T04:48:25;99885.88;;;14.14;96.32
6387;BME280;3226;42.162;24.756;2023-05-20T04:50:53;99872.38;;;14.27;94.81
6387;BME280;3226;42.162;24.756;2023-05-20T04:53:21;99897.09;;;14.44;94.26
6387;BME280;3226;42.162;24.756;2023-05-20T04:55:52;99894.19;;;14.19;94.93
6387;BME280;3226;42.162;24.756;2023-05-20T04:58:22;99886.88;;;14.41;93.92
6387;BME280;3226;42.162;24.756;2023-05-20T05:00:51;99890.78;;;14.65;92.25
6387;BME280;3226;42.162;24.756;2023-05-20T05:03:19;99900.03;;;14.79;92.34
6387;BME280;3226;42.162;24.756;2023-05-20T05:05:49;99879.75;;;14.97;90.57
6387;BME280;3226;42.162;24.756;2023-05-20T05:08:17;99892.66;;;15.37;88.82
6387;BME280;3226;42.162;24.756;2023-05-20T05:10:45;99890.25;;;15.70;86.86
6387;BME280;3226;42.162;24.756;2023-05-20T05:13:13;99884.81;;;15.89;86.48
6387;BME280;3226;42.162;24.756;2023-05-20T05:15:41;99893.81;;;16.05;85.11
6387;BME280;3226;42.162;24.756;2023-05-20T05:18:09;99892.81;;;16.32;83.70
6387;BME280;3226;42.162;24.756;2023-05-20T05:20:37;99892.53;;;16.44;83.15
6387;BME280;3226;42.162;24.756;2023-05-20T05:23:06;99899.31;;;16.46;81.69
6387;BME280;3226;42.162;24.756;2023-05-20T05:25:34;99900.00;;;16.57;79.59
6387;BME280;3226;42.162;24.756;2023-05-20T05:28:03;99897.41;;;16.73;78.58
6387;BME280;3226;42.162;24.756;2023-05-20T05:30:31;99894.28;;;16.78;78.72
6387;BME280;3226;42.162;24.756;2023-05-20T05:32:58;99903.88;;;16.87;77.63
6387;BME280;3226;42.162;24.756;2023-05-20T05:35:27;99903.44;;;17.00;77.24
6387;BME280;3226;42.162;24.756;2023-05-20T05:37:55;99900.00;;;17.16;77.89
6387;BME280;3226;42.162;24.756;2023-05-20T05:40:24;99890.91;;;17.19;76.65
6387;BME280;3226;42.162;24.756;2023-05-20T05:42:52;99890.41;;;17.24;75.17
6387;BME280;3226;42.162;24.756;2023-05-20T05:45:20;99893.41;;;17.45;73.71
6387;BME280;3226;42.162;24.756;2023-05-20T05:47:48;99892.56;;;17.53;73.93
6387;BME280;3226;42.162;24.756;2023-05-20T05:50:16;99893.88;;;17.49;74.45
6387;BME280;3226;42.162;24.756;2023-05-20T05:52:44;99889.25;;;17.59;74.71
6387;BME280;3226;42.162;24.756;2023-05-20T05:55:12;99845.91;;;17.60;73.85
6387;BME280;3226;42.162;24.756;2023-05-20T05:57:42;99877.75;;;18.00;73.00
6387;BME280;3226;42.162;24.756;2023-05-20T06:00:10;99865.19;;;18.11;72.19
6387;BME280;3226;42.162;24.756;2023-05-20T06:02:39;99880.19;;;18.27;71.44
6387;BME280;3226;42.162;24.756;2023-05-20T06:05:08;99890.09;;;18.33;72.05
6387;BME280;3226;42.162;24.756;2023-05-20T06:07:36;99881.81;;;18.36;72.10
6387;BME280;3226;42.162;24.756;2023-05-20T06:10:05;99886.38;;;18.50;72.76
6387;BME280;3226;42.162;24.756;2023-05-20T06:12:33;99885.59;;;18.42;71.89
6387;BME280;3226;42.162;24.756;2023-05-20T06:15:03;99886.81;;;18.62;71.64
6387;BME280;3226;42.162;24.756;2023-05-20T06:17:32;99885.84;;;18.87;70.81
6387;BME280;3226;42.162;24.756;2023-05-20T06:20:00;99882.78;;;18.75;70.48
6387;BME280;3226;42.162;24.756;2023-05-20T06:22:28;99882.50;;;18.93;69.46
6387;BME280;3226;42.162;24.756;2023-05-20T06:24:56;99865.25;;;18.89;67.84
6387;BME280;3226;42.162;24.756;2023-05-20T06:27:26;99879.59;;;19.11;66.66
6387;BME280;3226;42.162;24.756;2023-05-20T06:29:54;99879.47;;;19.04;67.35
6387;BME280;3226;42.162;24.756;2023-05-20T06:32:23;99873.88;;;19.23;64.78
6387;BME280;3226;42.162;24.756;2023-05-20T06:34:51;99878.94;;;19.32;64.29
6387;BME280;3226;42.162;24.756;2023-05-20T06:37:19;99878.13;;;19.47;63.70
6387;BME280;3226;42.162;24.756;2023-05-20T06:39:50;99874.16;;;19.81;62.73
6387;BME280;3226;42.162;24.756;2023-05-20T06:42:19;99872.88;;;20.52;60.50
6387;BME280;3226;42.162;24.756;2023-05-20T06:44:48;99878.50;;;20.64;58.58
6387;BME280;3226;42.162;24.756;2023-05-20T06:47:16;99879.88;;;20.23;58.16
6387;BME280;3226;42.162;24.756;2023-05-20T06:49:46;99871.28;;;20.21;58.35
6387;BME280;3226;42.162;24.756;2023-05-20T06:52:14;99870.81;;;20.17;58.85
6387;BME280;3226;42.162;24.756;2023-05-20T06:54:42;99875.00;;;20.12;58.82
6387;BME280;3226;42.162;24.756;2023-05-20T06:57:10;99869.41;;;20.21;58.20
6387;BME280;3226;42.162;24.756;2023-05-20T06:59:38;99872.94;;;20.07;58.50
6387;BME280;3226;42.162;24.756;2023-05-20T07:02:06;99872.91;;;20.22;58.58
6387;BME280;3226;42.162;24.756;2023-05-20T07:04:34;99871.81;;;20.01;57.38
6387;BME280;3226;42.162;24.756;2023-05-20T07:07:04;99872.09;;;20.21;58.24
6387;BME280;3226;42.162;24.756;2023-05-20T07:09:32;99868.69;;;20.28;56.22
6387;BME280;3226;42.162;24.756;2023-05-20T07:12:00;99875.94;;;20.34;55.33
6387;BME280;3226;42.162;24.756;2023-05-20T07:14:29;99882.78;;;20.43;56.27
6387;BME280;3226;42.162;24.756;2023-05-20T07:16:57;99880.28;;;20.57;55.60
6387;BME280;3226;42.162;24.756;2023-05-20T07:19:25;99880.50;;;20.40;54.76
6387;BME280;3226;42.162;24.756;2023-05-20T07:21:53;99888.41;;;20.18;53.63
6387;BME280;3226;42.162;24.756;2023-05-20T07:24:25;99877.22;;;20.23;55.33
6387;BME280;3226;42.162;24.756;2023-05-20T07:26:53;99878.84;;;20.39;54.43
6387;BME280;3226;42.162;24.756;2023-05-20T07:29:21;99880.59;;;20.32;52.52
6387;BME280;3226;42.162;24.756;2023-05-20T07:31:49;99879.72;;;20.61;52.74
6387;BME280;3226;42.162;24.756;2023-05-20T07:34:17;99882.00;;;21.01;51.30
6387;BME280;3226;42.162;24.756;2023-05-20T07:36:46;99885.06;;;21.20;50.82
6387;BME280;3226;42.162;24.756;2023-05-20T07:39:15;99889.22;;;20.86;51.41
6387;BME280;3226;42.162;24.756;2023-05-20T07:41:44;99885.19;;;20.38;52.35
6387;BME280;3226;42.162;24.756;2023-05-20T07:44:12;99885.56;;;20.20;51.65
6387;BME280;3226;42.162;24.756;2023-05-20T07:46:40;99880.25;;;20.35;51.09
6387;BME280;3226;42.162;24.756;2023-05-20T07:49:08;99885.69;;;20.63;51.64
6387;BME280;3226;42.162;24.756;2023-05-20T07:51:36;99878.97;;;20.83;50.30
6387;BME280;3226;42.162;24.756;2023-05-20T07:54:05;99891.06;;;21.07;50.91
6387;BME280;3226;42.162;24.756;2023-05-20T07:56:33;99885.56;;;21.30;51.94
6387;BME280;3226;42.162;24.756;2023-05-20T07:59:02;99875.34;;;21.34;50.65
6387;BME280;3226;42.162;24.756;2023-05-20T08:01:31;99868.13;;;21.56;51.77
6387;BME280;3226;42.162;24.756;2023-05-20T08:03:58;99871.19;;;21.53;48.96
6387;BME280;3226;42.162;24.756;2023-05-20T08:06:27;99862.34;;;21.46;48.05
6387;BME280;3226;42.162;24.756;2023-05-20T08:08:55;99867.31;;;21.56;47.84
6387;BME280;3226;42.162;24.756;2023-05-20T08:11:23;99870.41;;;21.59;47.87
6387;BME280;3226;42.162;24.756;2023-05-20T08:13:51;99867.63;;;21.67;47.10
6387;BME280;3226;42.162;24.756;2023-05-20T08:16:21;99870.13;;;21.47;48.10
6387;BME280;3226;42.162;24.756;2023-05-20T08:18:49;99873.16;;;21.66;48.42
6387;BME280;3226;42.162;24.756;2023-05-20T08:21:17;99869.38;;;21.82;49.90
6387;BME280;3226;42.162;24.756;2023-05-20T08:23:45;99861.00;;;21.85;47.88
6387;BME280;3226;42.162;24.756;2023-05-20T08:26:13;99865.19;;;22.01;47.80
6387;BME280;3226;42.162;24.756;2023-05-20T08:28:41;99863.19;;;22.10;47.64
6387;BME280;3226;42.162;24.756;2023-05-20T08:31:09;99859.53;;;22.24;48.25
6387;BME280;3226;42.162;24.756;2023-05-20T08:33:39;99865.28;;;22.21;46.17
6387;BME280;3226;42.162;24.756;2023-05-20T08:36:07;99863.06;;;22.32;45.19
6387;BME280;3226;42.162;24.756;2023-05-20T08:38:35;99862.03;;;22.33;46.68
6387;BME280;3226;42.162;24.756;2023-05-20T08:41:03;99860.41;;;22.38;45.79
6387;BME280;3226;42.162;24.756;2023-05-20T08:43:31;99867.06;;;22.07;48.14
6387;BME280;3226;42.162;24.756;2023-05-20T08:46:00;99866.03;;;22.08;46.78
6387;BME280;3226;42.162;24.756;2023-05-20T08:48:32;99861.56;;;21.52;48.08
6387;BME280;3226;42.162;24.756;2023-05-20T08:51:02;99865.56;;;21.41;48.79
6387;BME280;3226;42.162;24.756;2023-05-20T08:53:31;99866.03;;;21.01;49.28
6387;BME280;3226;42.162;24.756;2023-05-20T08:55:59;99856.09;;;21.38;49.43
6387;BME280;3226;42.162;24.756;2023-05-20T08:58:29;99849.94;;;21.88;49.51
6387;BME280;3226;42.162;24.756;2023-05-20T09:00:58;99848.22;;;22.16;49.01
6387;BME280;3226;42.162;24.756;2023-05-20T09:03:26;99843.00;;;21.94;48.88
6387;BME280;3226;42.162;24.756;2023-05-20T09:06:03;99858.44;;;22.05;49.66
6387;BME280;3226;42.162;24.756;2023-05-20T09:08:32;99853.34;;;21.53;48.66
6387;BME280;3226;42.162;24.756;2023-05-20T09:11:00;99854.34;;;21.46;48.91
6387;BME280;3226;42.162;24.756;2023-05-20T09:13:30;99856.16;;;21.45;48.70
6387;BME280;3226;42.162;24.756;2023-05-20T09:15:59;99851.00;;;21.15;50.53
6387;BME280;3226;42.162;24.756;2023-05-20T09:18:28;99860.06;;;21.43;49.18
6387;BME280;3226;42.162;24.756;2023-05-20T09:20:56;99859.06;;;21.72;50.00
6387;BME280;3226;42.162;24.756;2023-05-20T09:23:27;99848.56;;;21.64;50.39
6387;BME280;3226;42.162;24.756;2023-05-20T09:25:56;99855.47;;;21.36;49.46
6387;BME280;3226;42.162;24.756;2023-05-20T09:28:27;99853.56;;;21.23;49.89
6387;BME280;3226;42.162;24.756;2023-05-20T09:30:59;99856.72;;;21.34;50.22
6387;BME280;3226;42.162;24.756;2023-05-20T09:33:27;99825.28;;;21.22;52.36
6387;BME280;3226;42.162;24.756;2023-05-20T09:36:04;99854.22;;;21.32;50.72
6387;BME280;3226;42.162;24.756;2023-05-20T09:38:36;99857.56;;;21.41;50.81
6387;BME280;3226;42.162;24.756;2023-05-20T09:41:07;99859.63;;;21.67;50.31
6387;BME280;3226;42.162;24.756;2023-05-20T09:43:35;99847.44;;;21.80;51.55
6387;BME280;3226;42.162;24.756;2023-05-20T09:46:03;99818.59;;;21.97;52.07
6387;BME280;3226;42.162;24.756;2023-05-20T09:48:32;99843.91;;;22.15;51.49
6387;BME280;3226;42.162;24.756;2023-05-20T09:51:00;99834.22;;;22.07;50.26
6387;BME280;3226;42.162;24.756;2023-05-20T09:53:30;99833.19;;;22.08;50.25
6387;BME280;3226;42.162;24.756;2023-05-20T09:55:59;99828.94;;;22.14;51.25
6387;BME280;3226;42.162;24.756;2023-05-20T09:58:28;99829.50;;;22.09;48.44
6387;BME280;3226;42.162;24.756;2023-05-20T10:00:56;99831.00;;;22.18;47.77
6387;BME280;3226;42.162;24.756;2023-05-20T10:03:24;99827.34;;;21.84;49.83
6387;BME280;3226;42.162;24.756;2023-05-20T10:06:08;99823.97;;;21.69;51.67
6387;BME280;3226;42.162;24.756;2023-05-20T10:08:51;99831.56;;;21.72;51.86
6387;BME280;3226;42.162;24.756;2023-05-20T10:11:30;99821.97;;;21.77;49.92
6387;BME280;3226;42.162;24.756;2023-05-20T10:14:18;99822.22;;;21.83;52.22
6387;BME280;3226;42.162;24.756;2023-05-20T10:16:56;99824.06;;;21.82;51.60
6387;BME280;3226;42.162;24.756;2023-05-20T10:19:28;99827.28;;;22.13;51.48
6387;BME280;3226;42.162;24.756;2023-05-20T10:21:59;99828.03;;;22.00;50.98
6387;BME280;3226;42.162;24.756;2023-05-20T10:24:31;99832.84;;;21.76;49.51
6387;BME280;3226;42.162;24.756;2023-05-20T10:27:04;99837.41;;;21.60;47.54
6387;BME280;3226;42.162;24.756;2023-05-20T10:29:41;99834.06;;;21.45;46.52
6387;BME280;3226;42.162;24.756;2023-05-20T10:32:10;99827.56;;;21.54;44.86
6387;BME280;3226;42.162;24.756;2023-05-20T10:34:44;99814.28;;;21.61;45.24
6387;BME280;3226;42.162;24.756;2023-05-20T10:37:23;99807.06;;;21.83;45.54
6387;BME280;3226;42.162;24.756;2023-05-20T10:40:04;99821.47;;;21.95;46.14
6387;BME280;3226;42.162;24.756;2023-05-20T10:42:34;99815.00;;;21.76;44.95
6387;BME280;3226;42.162;24.756;2023-05-20T10:45:02;99793.16;;;21.59;46.93
6387;BME280;3226;42.162;24.756;2023-05-20T10:47:30;99815.41;;;21.73;45.65
6387;BME280;3226;42.162;24.756;2023-05-20T10:49:59;99819.56;;;21.54;47.32
6387;BME280;3226;42.162;24.756;2023-05-20T10:52:32;99823.91;;;21.33;49.34
6387;BME280;3226;42.162;24.756;2023-05-20T10:55:00;99818.25;;;21.15;49.04
6387;BME280;3226;42.162;24.756;2023-05-20T10:57:29;99825.03;;;20.96;48.88
6387;BME280;3226;42.162;24.756;2023-05-20T10:59:59;99832.19;;;20.73;49.24
6387;BME280;3226;42.162;24.756;2023-05-20T11:02:28;99828.56;;;20.81;49.94
6387;BME280;3226;42.162;24.756;2023-05-20T11:04:56;99819.75;;;21.02;51.02
6387;BME280;3226;42.162;24.756;2023-05-20T11:07:25;99827.13;;;21.00;50.25
6387;BME280;3226;42.162;24.756;2023-05-20T11:09:54;99814.72;;;20.86;49.29
6387;BME280;3226;42.162;24.756;2023-05-20T11:12:23;99821.22;;;20.83;49.76
6387;BME280;3226;42.162;24.756;2023-05-20T11:14:51;99804.00;;;20.79;50.35
6387;BME280;3226;42.162;24.756;2023-05-20T11:17:22;99818.25;;;20.93;50.97
6387;BME280;3226;42.162;24.756;2023-05-20T11:19:50;99819.03;;;20.87;51.90
6387;BME280;3226;42.162;24.756;2023-05-20T11:22:18;99820.09;;;20.92;51.70
6387;BME280;3226;42.162;24.756;2023-05-20T11:24:46;99804.94;;;21.15;51.83
6387;BME280;3226;42.162;24.756;2023-05-20T11:27:14;99820.31;;;21.19;50.51
6387;BME280;3226;42.162;24.756;2023-05-20T11:29:42;99811.59;;;21.32;48.93
6387;BME280;3226;42.162;24.756;2023-05-20T11:32:11;99797.31;;;21.40;48.74
6387;BME280;3226;42.162;24.756;2023-05-20T11:34:40;99804.38;;;21.55;47.74
6387;BME280;3226;42.162;24.756;2023-05-20T11:37:09;99792.34;;;21.59;47.39
6387;BME280;3226;42.162;24.756;2023-05-20T11:39:37;99796.75;;;21.45;46.44
6387;BME280;3226;42.162;24.756;2023-05-20T11:42:05;99798.81;;;21.49;46.06
6387;BME280;3226;42.162;24.756;2023-05-20T11:44:33;99797.16;;;21.48;45.50
6387;BME280;3226;42.162;24.756;2023-05-20T11:47:02;99796.38;;;21.48;44.79
6387;BME280;3226;42.162;24.756;2023-05-20T11:49:39;99803.38;;;21.27;47.06
6387;BME280;3226;42.162;24.756;2023-05-20T11:52:08;99805.50;;;21.10;48.14
6387;BME280;3226;42.162;24.756;2023-05-20T11:54:37;99792.66;;;20.92;45.75
6387;BME280;3226;42.162;24.756;2023-05-20T11:57:05;99796.47;;;21.04;47.30
6387;BME280;3226;42.162;24.756;2023-05-20T11:59:33;99797.75;;;21.15;46.59
6387;BME280;3226;42.162;24.756;2023-05-20T12:02:02;99787.63;;;21.04;46.98
6387;BME280;3226;42.162;24.756;2023-05-20T12:04:30;99792.50;;;21.22;45.13
6387;BME280;3226;42.162;24.756;2023-05-20T12:06:59;99800.19;;;21.10;44.34
6387;BME280;3226;42.162;24.756;2023-05-20T12:09:29;99793.81;;;20.83;46.64
6387;BME280;3226;42.162;24.756;2023-05-20T12:11:57;99794.06;;;20.88;46.14
6387;BME280;3226;42.162;24.756;2023-05-20T12:14:25;99798.16;;;21.12;46.02
6387;BME280;3226;42.162;24.756;2023-05-20T12:16:53;99786.72;;;21.18;45.47
6387;BME280;3226;42.162;24.756;2023-05-20T12:19:21;99790.47;;;21.24;44.86
6387;BME280;3226;42.162;24.756;2023-05-20T12:21:49;99788.84;;;21.01;46.82
6387;BME280;3226;42.162;24.756;2023-05-20T12:24:19;99779.84;;;21.02;47.68
6387;BME280;3226;42.162;24.756;2023-05-20T12:29:15;99775.03;;;21.19;47.18
6387;BME280;3226;42.162;24.756;2023-05-20T12:31:43;99781.44;;;21.25;47.15
6387;BME280;3226;42.162;24.756;2023-05-20T12:34:11;99775.91;;;20.98;48.83
6387;BME280;3226;42.162;24.756;2023-05-20T12:36:39;99771.81;;;21.24;45.05
6387;BME280;3226;42.162;24.756;2023-05-20T12:39:07;99766.84;;;21.43;44.80
6387;BME280;3226;42.162;24.756;2023-05-20T12:41:38;99763.16;;;21.44;44.98
6387;BME280;3226;42.162;24.756;2023-05-20T12:44:06;99766.84;;;21.49;46.28
6387;BME280;3226;42.162;24.756;2023-05-20T12:46:34;99754.81;;;21.25;46.52
6387;BME280;3226;42.162;24.756;2023-05-20T12:49:02;99748.09;;;21.01;47.48
6387;BME280;3226;42.162;24.756;2023-05-20T12:51:30;99748.41;;;20.91;47.58
6387;BME280;3226;42.162;24.756;2023-05-20T12:53:58;99746.78;;;20.90;47.63
6387;BME280;3226;42.162;24.756;2023-05-20T12:56:26;99721.75;;;20.84;48.02
6387;BME280;3226;42.162;24.756;2023-05-20T12:58:55;99747.88;;;21.02;49.03
6387;BME280;3226;42.162;24.756;2023-05-20T13:01:24;99736.75;;;20.92;49.00
6387;BME280;3226;42.162;24.756;2023-05-20T13:03:52;99729.03;;;20.75;49.42
6387;BME280;3226;42.162;24.756;2023-05-20T13:06:21;99725.13;;;20.71;47.98
6387;BME280;3226;42.162;24.756;2023-05-20T13:08:49;99730.25;;;20.94;49.61
6387;BME280;3226;42.162;24.756;2023-05-20T13:11:17;99723.84;;;20.89;48.66
6387;BME280;3226;42.162;24.756;2023-05-20T13:13:45;99722.66;;;20.98;49.40
6387;BME280;3226;42.162;24.756;2023-05-20T13:16:14;99709.28;;;20.85;48.73
6387;BME280;3226;42.162;24.756;2023-05-20T13:18:43;99718.97;;;20.92;48.55